Athens, Louisiana
Current Conditions -  °F | °C
As of 4:36 AM on Saturday 22 Nov 2014 (Local Time) from KMNE Reporting Station
Overcast Overcast  
Wind Chill: 55°   Ceiling: 6000
Heat Index: 55°   Visibility: 10mi
Dew Point: 50°   Wind: 6mph
Humidity: 82%   Direction: 110°ESE
Pressure: 30.19"   Gusts: NA
Location:  32.65°N, 93.03°W
Report Text: KMNE 221036Z AUTO 11005KT 10SM BKN060 BKN075 OVC095 13/10 A3019 RMK AO2 LTG DSNT W
Loading
Personal Weather Stations






























Interactive Weather Map New forecast layout! Learn more

10-Day Weather Forecast

Advertisements
Track Severe Weather on mobile